Time;durP1;ratioP1;P1;durP2;ratioP2;P2;SDS_P1;SDS_P2;PMS_P1;PMS_P2;Temp;Humidity;BMP_temperature;BMP_pressure;BME280_temperature;BME280_humidity;BME280_pressure;Samples;Min_cycle;Max_cycle;Signal;HPM_P1;HPM_P2
2023/03/27 00:02:19;;;;;;;4.13;2.20;;;;;;;;;;5039385;28;20021;-74
2023/03/27 00:04:45;;;;;;;4.25;2.50;;;;;;;;;;5037999;28;20036;-74
2023/03/27 00:07:11;;;;;;;6.80;2.40;;;;;;;;;;5038756;28;20029;-74
2023/03/27 00:09:38;;;;;;;3.47;2.55;;;;;;;;;;5038273;28;20085;-74
2023/03/27 00:12:04;;;;;;;6.03;3.15;;;;;;;;;;5040741;28;20040;-74
2023/03/27 00:14:31;;;;;;;4.85;2.92;;;;;;;;;;5045344;28;20017;-74
2023/03/27 00:16:58;;;;;;;8.35;3.55;;;;;;;;;;5042733;28;20049;-74
2023/03/27 00:19:25;;;;;;;6.10;3.72;;;;;;;;;;5041673;28;20029;-74
2023/03/27 00:21:52;;;;;;;8.85;3.50;;;;;;;;;;5044245;28;20498;-74
2023/03/27 00:24:18;;;;;;;7.20;3.72;;;;;;;;;;5046506;28;20072;-74
2023/03/27 00:26:44;;;;;;;12.18;4.13;;;;;;;;;;5044305;28;20358;-75
2023/03/27 00:29:12;;;;;;;9.38;3.85;;;;;;;;;;5043902;28;20028;-74
2023/03/27 00:31:38;;;;;;;7.97;3.67;;;;;;;;;;5044813;28;20397;-74
2023/03/27 00:34:04;;;;;;;7.97;4.43;;;;;;;;;;5044445;28;20112;-74
2023/03/27 00:36:31;;;;;;;5.78;3.22;;;;;;;;;;5043768;28;20479;-74
2023/03/27 00:38:57;;;;;;;6.32;3.90;;;;;;;;;;5042261;28;20120;-74
2023/03/27 00:41:23;;;;;;;11.18;4.15;;;;;;;;;;5044972;28;20036;-74
2023/03/27 00:43:52;;;;;;;6.57;3.50;;;;;;;;;;5042016;28;20040;-73
2023/03/27 00:46:33;;;;;;;8.45;3.90;;;;;;;;;;5043025;28;20275;-73
2023/03/27 00:49:01;;;;;;;7.45;3.70;;;;;;;;;;5042665;28;20294;-74
2023/03/27 00:51:28;;;;;;;8.85;4.20;;;;;;;;;;5043001;28;20041;-74
2023/03/27 00:53:55;;;;;;;7.30;4.28;;;;;;;;;;5043378;28;20453;-74
2023/03/27 00:56:22;;;;;;;10.10;4.05;;;;;;;;;;5041562;28;20064;-74
2023/03/27 00:58:50;;;;;;;8.70;3.95;;;;;;;;;;5041917;28;20031;-74
2023/03/27 01:01:16;;;;;;;10.30;4.82;;;;;;;;;;5044570;28;20465;-74
2023/03/27 01:03:45;;;;;;;9.13;3.90;;;;;;;;;;5049536;28;20063;-74
2023/03/27 01:06:13;;;;;;;8.00;4.20;;;;;;;;;;5049984;28;20033;-74
2023/03/27 01:08:41;;;;;;;7.68;4.60;;;;;;;;;;5046167;28;20108;-74
2023/03/27 01:11:13;;;;;;;10.05;4.45;;;;;;;;;;5047500;28;20632;-75
2023/03/27 01:13:58;;;;;;;8.15;4.13;;;;;;;;;;5043956;28;20025;-74
2023/03/27 01:16:40;;;;;;;9.02;4.15;;;;;;;;;;5049073;28;20144;-74
2023/03/27 01:19:12;;;;;;;12.77;4.93;;;;;;;;;;5043963;28;20104;-74
2023/03/27 01:21:38;;;;;;;;;;;;;;;;;;5046217;28;20120;-73
2023/03/27 01:24:10;;;;;;;9.75;4.68;;;;;;;;;;5039506;28;19996;-74
2023/03/27 01:26:36;;;;;;;9.25;4.40;;;;;;;;;;5045160;28;20485;-74
2023/03/27 01:29:05;;;;;;;8.57;4.10;;;;;;;;;;5044594;28;20544;-74
2023/03/27 01:31:50;;;;;;;9.63;4.30;;;;;;;;;;5040336;28;20775;-74
2023/03/27 01:34:41;;;;;;;7.93;4.10;;;;;;;;;;5046785;28;20044;-74
2023/03/27 01:37:12;;;;;;;8.10;4.10;;;;;;;;;;5043714;28;20715;-73
2023/03/27 01:39:45;;;;;;;11.33;4.33;;;;;;;;;;5048252;28;20033;-76
2023/03/27 01:42:20;;;;;;;7.10;4.00;;;;;;;;;;5044532;28;20484;-74
2023/03/27 01:45:05;;;;;;;7.85;4.03;;;;;;;;;;5048672;28;20476;-74
2023/03/27 01:47:35;;;;;;;12.27;4.80;;;;;;;;;;5050778;28;20036;-74
2023/03/27 01:50:06;;;;;;;7.25;3.40;;;;;;;;;;5050181;28;20048;-74
2023/03/27 01:52:35;;;;;;;10.05;5.10;;;;;;;;;;5047741;28;20061;-74
2023/03/27 01:55:03;;;;;;;9.00;3.92;;;;;;;;;;5047906;28;20147;-74
2023/03/27 01:57:36;;;;;;;11.63;4.18;;;;;;;;;;5047332;28;20043;-74
2023/03/27 02:00:13;;;;;;;7.93;4.07;;;;;;;;;;5044134;28;20701;-74
2023/03/27 02:02:41;;;;;;;8.10;4.43;;;;;;;;;;5045040;28;20021;-74
2023/03/27 02:05:42;;;;;;;10.70;4.13;;;;;;;;;;5042509;28;20029;-74
2023/03/27 02:08:15;;;;;;;7.17;4.80;;;;;;;;;;4987214;28;20046;-74
2023/03/27 02:10:43;;;;;;;12.20;4.80;;;;;;;;;;5032906;28;20033;-73
2023/03/27 02:13:17;;;;;;;11.55;4.68;;;;;;;;;;5042311;28;20059;-74
2023/03/27 02:15:45;;;;;;;13.65;6.07;;;;;;;;;;5047130;28;20045;-73
2023/03/27 02:18:17;;;;;;;10.95;5.10;;;;;;;;;;5046119;28;20101;-73
2023/03/27 02:20:44;;;;;;;7.80;4.35;;;;;;;;;;5045755;28;20662;-73
2023/03/27 02:23:11;;;;;;;11.13;5.10;;;;;;;;;;5044311;28;20040;-74
2023/03/27 02:25:38;;;;;;;11.68;4.40;;;;;;;;;;5046083;28;20075;-74
2023/03/27 02:28:23;;;;;;;10.55;4.70;;;;;;;;;;5037164;28;20025;-73
2023/03/27 02:30:58;;;;;;;10.70;4.43;;;;;;;;;;5044529;28;20032;-73
2023/03/27 02:33:41;;;;;;;10.65;5.68;;;;;;;;;;5046429;28;20017;-74
2023/03/27 02:36:27;;;;;;;10.13;4.70;;;;;;;;;;5040347;28;20032;-73
2023/03/27 02:39:13;;;;;;;8.55;3.92;;;;;;;;;;5039856;28;20507;-74
2023/03/27 02:41:42;;;;;;;9.55;4.80;;;;;;;;;;5043166;28;20045;-74
2023/03/27 02:44:08;;;;;;;9.00;4.70;;;;;;;;;;5040044;28;20029;-74
2023/03/27 02:46:42;;;;;;;14.23;5.18;;;;;;;;;;5039790;28;20068;-74
2023/03/27 02:49:12;;;;;;;11.02;4.40;;;;;;;;;;5039288;28;20041;-74
2023/03/27 02:51:50;;;;;;;11.30;4.57;;;;;;;;;;5042159;28;20231;-74
2023/03/27 02:54:22;;;;;;;12.00;4.93;;;;;;;;;;5038915;28;20029;-74
2023/03/27 02:56:58;;;;;;;8.37;4.50;;;;;;;;;;5045576;28;21009;-74
2023/03/27 02:59:26;;;;;;;10.75;4.85;;;;;;;;;;5042974;28;20249;-74
2023/03/27 03:01:53;;;;;;;18.33;5.65;;;;;;;;;;5034591;28;20030;-74
2023/03/27 03:04:40;;;;;;;11.50;5.30;;;;;;;;;;5045044;28;20032;-74
2023/03/27 03:07:07;;;;;;;10.85;5.45;;;;;;;;;;5043419;28;20024;-74
2023/03/27 03:09:34;;;;;;;9.38;4.90;;;;;;;;;;5034622;28;20021;-74
2023/03/27 03:12:00;;;;;;;8.50;4.72;;;;;;;;;;5037948;28;20037;-74
2023/03/27 03:14:29;;;;;;;10.30;4.47;;;;;;;;;;5039043;28;20025;-74
2023/03/27 03:16:56;;;;;;;12.50;4.65;;;;;;;;;;5045736;28;20408;-74
2023/03/27 03:19:26;;;;;;;9.02;4.75;;;;;;;;;;5042859;28;20025;-74
2023/03/27 03:21:52;;;;;;;8.82;4.53;;;;;;;;;;5033726;28;20037;-74
2023/03/27 03:24:20;;;;;;;9.85;5.07;;;;;;;;;;5033959;28;20577;-74
2023/03/27 03:26:49;;;;;;;11.80;4.97;;;;;;;;;;5045929;28;20051;-74
2023/03/27 03:29:16;;;;;;;14.15;5.10;;;;;;;;;;5042597;28;20037;-74
2023/03/27 03:31:43;;;;;;;12.05;5.32;;;;;;;;;;5035716;28;20059;-73
2023/03/27 03:34:13;;;;;;;11.77;4.90;;;;;;;;;;5034928;28;20203;-74
2023/03/27 03:36:40;;;;;;;11.45;5.25;;;;;;;;;;5038702;28;20112;-74
2023/03/27 03:39:07;;;;;;;13.98;4.97;;;;;;;;;;5033102;28;20021;-74
2023/03/27 03:41:33;;;;;;;10.13;5.35;;;;;;;;;;5040022;28;20057;-74
2023/03/27 03:43:59;;;;;;;11.43;4.80;;;;;;;;;;5034610;28;20021;-74
2023/03/27 03:46:25;;;;;;;11.00;5.35;;;;;;;;;;5046468;28;20020;-74
2023/03/27 03:48:51;;;;;;;10.80;5.18;;;;;;;;;;5038241;28;20100;-73
2023/03/27 03:51:18;;;;;;;9.77;4.18;;;;;;;;;;5040857;28;20055;-74
2023/03/27 03:53:44;;;;;;;11.07;5.00;;;;;;;;;;5040900;28;20029;-74
2023/03/27 03:56:10;;;;;;;8.55;4.57;;;;;;;;;;5039971;28;20025;-74
2023/03/27 03:58:36;;;;;;;10.30;4.57;;;;;;;;;;5042213;28;20478;-74
2023/03/27 04:01:02;;;;;;;14.70;4.80;;;;;;;;;;5041290;28;20021;-73
2023/03/27 04:03:31;;;;;;;10.75;3.92;;;;;;;;;;5039707;28;20029;-73
2023/03/27 04:05:59;;;;;;;11.45;3.92;;;;;;;;;;5042285;28;20614;-74
2023/03/27 04:08:26;;;;;;;6.88;3.90;;;;;;;;;;5040579;28;20151;-74
2023/03/27 04:10:52;;;;;;;8.60;3.47;;;;;;;;;;5037551;28;20029;-74
2023/03/27 04:13:18;;;;;;;9.23;3.90;;;;;;;;;;5041739;28;20029;-73
2023/03/27 04:15:45;;;;;;;13.75;4.70;;;;;;;;;;5044525;28;20048;-73
2023/03/27 04:18:13;;;;;;;8.32;3.88;;;;;;;;;;5039397;28;20017;-74
2023/03/27 04:20:40;;;;;;;8.60;3.67;;;;;;;;;;5044336;28;20111;-74
2023/03/27 04:23:07;;;;;;;7.47;3.58;;;;;;;;;;5038254;28;20134;-74
2023/03/27 04:25:34;;;;;;;11.60;4.47;;;;;;;;;;5039028;28;20024;-74
2023/03/27 04:28:03;;;;;;;8.10;3.13;;;;;;;;;;5040095;28;20116;-74
2023/03/27 04:30:29;;;;;;;9.25;3.63;;;;;;;;;;5036574;28;20021;-75
2023/03/27 04:32:58;;;;;;;11.55;3.55;;;;;;;;;;5040165;28;20033;-75
2023/03/27 04:35:25;;;;;;;11.52;3.28;;;;;;;;;;5037131;28;20473;-75
2023/03/27 04:37:51;;;;;;;9.13;3.90;;;;;;;;;;5044465;28;20086;-75
2023/03/27 04:40:17;;;;;;;9.02;3.40;;;;;;;;;;5042881;28;20036;-75
2023/03/27 04:42:44;;;;;;;6.97;2.92;;;;;;;;;;5037656;28;20030;-74
2023/03/27 04:45:19;;;;;;;8.05;3.53;;;;;;;;;;5040992;28;20024;-74
2023/03/27 04:47:47;;;;;;;12.75;3.63;;;;;;;;;;5044173;28;20029;-75
2023/03/27 04:50:14;;;;;;;8.43;2.83;;;;;;;;;;5039785;28;20477;-75
2023/03/27 04:52:41;;;;;;;23.90;3.45;;;;;;;;;;5041234;28;20106;-76
2023/03/27 04:55:07;;;;;;;6.53;3.15;;;;;;;;;;5045603;28;20016;-76
2023/03/27 04:57:33;;;;;;;7.60;2.90;;;;;;;;;;5045158;28;20025;-76
2023/03/27 05:00:00;;;;;;;10.02;3.38;;;;;;;;;;5044175;28;20520;-75
2023/03/27 05:02:27;;;;;;;9.35;2.88;;;;;;;;;;5044750;28;20569;-76
2023/03/27 05:05:00;;;;;;;9.10;3.63;;;;;;;;;;5048675;28;20071;-76
2023/03/27 05:07:27;;;;;;;8.48;3.33;;;;;;;;;;5043640;28;20044;-75
2023/03/27 05:09:54;;;;;;;5.78;2.97;;;;;;;;;;5040555;28;20029;-76
2023/03/27 05:12:21;;;;;;;11.43;3.83;;;;;;;;;;5037037;28;20492;-76
2023/03/27 05:14:47;;;;;;;10.38;3.40;;;;;;;;;;5042818;28;20410;-76
2023/03/27 05:17:17;;;;;;;10.52;3.00;;;;;;;;;;5024771;28;20081;-75
2023/03/27 05:19:43;;;;;;;10.80;3.88;;;;;;;;;;5030246;28;20040;-75
2023/03/27 05:22:09;;;;;;;7.93;2.85;;;;;;;;;;5029079;28;20161;-75
2023/03/27 05:24:36;;;;;;;11.75;3.63;;;;;;;;;;5023399;28;20561;-76
2023/03/27 05:27:03;;;;;;;7.32;2.55;;;;;;;;;;5018878;28;20025;-75
2023/03/27 05:29:29;;;;;;;7.97;3.03;;;;;;;;;;5019804;28;20026;-76
2023/03/27 05:31:55;;;;;;;9.68;2.78;;;;;;;;;;5022925;28;20025;-76
2023/03/27 05:34:22;;;;;;;9.20;2.50;;;;;;;;;;5019646;28;20433;-76
2023/03/27 05:36:48;;;;;;;11.60;2.97;;;;;;;;;;5019597;28;20057;-75
2023/03/27 05:39:15;;;;;;;13.43;3.40;;;;;;;;;;5027386;28;20029;-73
2023/03/27 05:41:42;;;;;;;5.00;2.33;;;;;;;;;;5021006;28;20021;-74
2023/03/27 05:44:08;;;;;;;16.08;3.10;;;;;;;;;;5020684;28;20075;-72
2023/03/27 05:46:34;;;;;;;8.15;2.78;;;;;;;;;;5018994;28;20117;-74
2023/03/27 05:49:01;;;;;;;10.70;2.40;;;;;;;;;;5029741;28;20051;-75
2023/03/27 05:51:28;;;;;;;10.23;3.00;;;;;;;;;;5028999;28;20033;-76
2023/03/27 05:53:54;;;;;;;9.77;2.50;;;;;;;;;;5028264;28;20017;-73
2023/03/27 05:56:20;;;;;;;10.00;2.75;;;;;;;;;;5027198;28;20052;-72
2023/03/27 05:58:46;;;;;;;9.30;2.50;;;;;;;;;;5024865;28;20385;-77
2023/03/27 06:01:13;;;;;;;6.88;2.80;;;;;;;;;;5027078;28;20112;-75
2023/03/27 06:03:39;;;;;;;10.27;3.67;;;;;;;;;;5030336;28;20092;-75
2023/03/27 06:06:09;;;;;;;5.07;2.33;;;;;;;;;;5025052;28;20104;-75
2023/03/27 06:08:35;;;;;;;7.00;2.90;;;;;;;;;;5029782;28;20139;-75
2023/03/27 06:11:07;;;;;;;6.70;2.25;;;;;;;;;;5025996;28;20036;-75
2023/03/27 06:13:33;;;;;;;4.57;2.25;;;;;;;;;;5030402;28;20035;-75
2023/03/27 06:15:59;;;;;;;6.72;2.60;;;;;;;;;;5030914;28;20041;-75
2023/03/27 06:18:26;;;;;;;9.13;3.88;;;;;;;;;;5045686;28;20107;-75
2023/03/27 06:20:52;;;;;;;8.60;2.78;;;;;;;;;;5040949;28;20017;-76
2023/03/27 06:23:18;;;;;;;7.20;2.28;;;;;;;;;;5045194;28;20484;-75
2023/03/27 06:25:46;;;;;;;6.38;2.55;;;;;;;;;;5042409;28;20070;-75
2023/03/27 06:28:13;;;;;;;8.13;2.58;;;;;;;;;;5038593;28;20079;-75
2023/03/27 06:30:39;;;;;;;5.38;2.10;;;;;;;;;;5040140;28;20054;-75
2023/03/27 06:33:06;;;;;;;6.97;2.67;;;;;;;;;;5039563;28;20104;-75
2023/03/27 06:35:33;;;;;;;14.57;2.70;;;;;;;;;;5045730;28;20025;-74
2023/03/27 06:38:01;;;;;;;9.10;2.40;;;;;;;;;;5038963;28;20649;-74
2023/03/27 06:40:28;;;;;;;9.68;4.07;;;;;;;;;;5039835;28;20440;-75
2023/03/27 06:42:55;;;;;;;11.98;2.83;;;;;;;;;;5033161;28;20469;-75
2023/03/27 06:45:28;;;;;;;9.57;2.90;;;;;;;;;;5043749;28;20027;-75
2023/03/27 06:47:56;;;;;;;11.65;2.92;;;;;;;;;;5042965;28;20060;-75
2023/03/27 06:50:23;;;;;;;6.65;3.05;;;;;;;;;;5041138;28;20029;-75
2023/03/27 06:52:49;;;;;;;7.30;2.95;;;;;;;;;;5039265;28;20559;-75
2023/03/27 06:55:16;;;;;;;9.90;3.15;;;;;;;;;;5043609;28;20036;-75
2023/03/27 06:57:47;;;;;;;7.38;2.90;;;;;;;;;;5040415;28;20036;-76
2023/03/27 07:00:16;;;;;;;10.18;3.00;;;;;;;;;;5045144;28;20098;-75
2023/03/27 07:02:42;;;;;;;8.30;2.85;;;;;;;;;;5039709;28;20148;-75
2023/03/27 07:05:09;;;;;;;8.00;3.15;;;;;;;;;;5037656;28;20033;-74
2023/03/27 07:07:35;;;;;;;8.13;2.63;;;;;;;;;;5043669;28;20032;-74
2023/03/27 07:10:04;;;;;;;7.15;2.63;;;;;;;;;;5041102;28;20029;-75
2023/03/27 07:12:30;;;;;;;7.47;2.65;;;;;;;;;;5042985;28;20091;-75
2023/03/27 07:14:56;;;;;;;7.63;2.55;;;;;;;;;;5042474;28;20017;-75
2023/03/27 07:17:22;;;;;;;5.45;2.20;;;;;;;;;;5046583;28;20044;-76
2023/03/27 07:19:49;;;;;;;7.95;2.10;;;;;;;;;;5041906;28;20033;-75
2023/03/27 07:22:15;;;;;;;12.05;2.40;;;;;;;;;;5044829;28;20024;-76
2023/03/27 07:24:41;;;;;;;11.65;2.15;;;;;;;;;;5038009;28;20080;-75
2023/03/27 07:27:08;;;;;;;6.75;2.00;;;;;;;;;;5038581;28;20639;-75
2023/03/27 07:29:35;;;;;;;6.75;1.98;;;;;;;;;;5042800;28;20021;-76
2023/03/27 07:32:02;;;;;;;5.70;2.00;;;;;;;;;;5046818;28;20040;-75
2023/03/27 07:34:28;;;;;;;5.40;1.52;;;;;;;;;;5044331;28;20029;-76
2023/03/27 07:36:56;;;;;;;5.03;1.80;;;;;;;;;;5041522;28;20021;-75
2023/03/27 07:39:22;;;;;;;3.88;1.50;;;;;;;;;;5045671;28;20402;-75
2023/03/27 07:41:49;;;;;;;10.30;2.22;;;;;;;;;;5041848;28;20520;-75
2023/03/27 07:44:15;;;;;;;6.25;2.05;;;;;;;;;;5043045;28;20548;-74
2023/03/27 07:46:42;;;;;;;8.13;1.70;;;;;;;;;;5042264;28;20388;-75
2023/03/27 07:49:08;;;;;;;7.68;1.83;;;;;;;;;;5043297;28;20021;-75
2023/03/27 07:51:35;;;;;;;5.00;1.88;;;;;;;;;;5043982;28;20472;-75
2023/03/27 07:54:03;;;;;;;7.30;2.20;;;;;;;;;;5045340;28;20090;-76
2023/03/27 07:56:32;;;;;;;5.30;1.70;;;;;;;;;;5041963;28;20029;-75
2023/03/27 07:58:58;;;;;;;6.90;1.88;;;;;;;;;;5040802;28;20045;-75
2023/03/27 08:01:26;;;;;;;11.68;2.55;;;;;;;;;;5036172;28;20665;-75
2023/03/27 08:03:53;;;;;;;9.07;2.72;;;;;;;;;;5047257;28;20090;-75
2023/03/27 08:06:19;;;;;;;9.60;2.63;;;;;;;;;;5041866;28;20033;-75
2023/03/27 08:08:45;;;;;;;7.78;2.22;;;;;;;;;;5044799;28;20578;-75
2023/03/27 08:11:11;;;;;;;11.02;2.78;;;;;;;;;;5040683;28;20108;-75
2023/03/27 08:13:38;;;;;;;7.70;2.33;;;;;;;;;;5048137;28;20028;-75
2023/03/27 08:16:09;;;;;;;6.50;2.25;;;;;;;;;;5039416;28;20123;-75
2023/03/27 08:18:36;;;;;;;10.20;2.88;;;;;;;;;;5041831;28;20104;-75
2023/03/27 08:21:04;;;;;;;11.02;2.55;;;;;;;;;;5041475;28;20021;-75
2023/03/27 08:23:32;;;;;;;11.95;2.85;;;;;;;;;;5047970;28;20036;-75
2023/03/27 08:25:59;;;;;;;8.32;2.10;;;;;;;;;;5044553;28;20032;-76
2023/03/27 08:28:34;;;;;;;7.55;2.03;;;;;;;;;;5043630;28;20052;-76
2023/03/27 08:31:00;;;;;;;10.10;2.75;;;;;;;;;;5035717;28;20033;-75
2023/03/27 08:33:27;;;;;;;7.10;1.85;;;;;;;;;;5039124;28;20017;-75
2023/03/27 08:35:57;;;;;;;4.63;1.67;;;;;;;;;;5041933;28;20025;-75
2023/03/27 08:38:25;;;;;;;7.80;2.47;;;;;;;;;;5048356;28;20448;-75
2023/03/27 08:40:52;;;;;;;9.63;2.25;;;;;;;;;;5043108;28;20125;-75
2023/03/27 08:43:21;;;;;;;4.80;1.73;;;;;;;;;;5050185;28;20025;-74
2023/03/27 08:45:53;;;;;;;5.85;2.03;;;;;;;;;;5036646;28;20047;-75
2023/03/27 08:48:21;;;;;;;5.43;1.90;;;;;;;;;;5040416;28;20616;-75
2023/03/27 08:50:50;;;;;;;6.47;1.83;;;;;;;;;;5037287;28;20029;-75
2023/03/27 08:53:29;;;;;;;5.40;1.58;;;;;;;;;;5040704;28;20052;-75
2023/03/27 08:55:55;;;;;;;6.30;1.90;;;;;;;;;;5039428;28;20473;-76
2023/03/27 08:58:22;;;;;;;2.95;1.40;;;;;;;;;;5038634;28;20060;-75
2023/03/27 09:01:00;;;;;;;3.10;1.10;;;;;;;;;;5037709;28;20092;-75
2023/03/27 09:03:34;;;;;;;10.07;1.83;;;;;;;;;;5040632;28;20044;-75
2023/03/27 09:06:10;;;;;;;5.55;1.33;;;;;;;;;;5039543;28;20029;-75
2023/03/27 09:08:43;;;;;;;4.80;1.10;;;;;;;;;;5040264;28;20022;-75
2023/03/27 09:11:32;;;;;;;3.45;1.15;;;;;;;;;;5037961;28;20044;-75
2023/03/27 09:14:00;;;;;;;1.67;0.80;;;;;;;;;;5041998;28;20064;-75
2023/03/27 09:16:30;;;;;;;3.10;0.98;;;;;;;;;;5035509;28;20383;-75
2023/03/27 09:19:18;;;;;;;6.25;1.10;;;;;;;;;;5040549;28;20037;-75
2023/03/27 09:21:56;;;;;;;3.97;0.90;;;;;;;;;;5041831;28;20020;-75
2023/03/27 09:24:32;;;;;;;5.65;1.27;;;;;;;;;;5049589;28;20048;-75
2023/03/27 09:27:00;;;;;;;7.35;1.15;;;;;;;;;;5045905;28;20060;-75
2023/03/27 09:29:30;;;;;;;3.97;1.00;;;;;;;;;;5044886;28;20029;-75
2023/03/27 09:31:58;;;;;;;3.53;1.00;;;;;;;;;;5044241;28;20503;-74
2023/03/27 09:34:25;;;;;;;2.50;0.90;;;;;;;;;;5047688;28;20037;-75
2023/03/27 09:36:52;;;;;;;4.93;1.10;;;;;;;;;;5044069;28;20048;-75
2023/03/27 09:39:38;;;;;;;2.50;1.02;;;;;;;;;;5046033;28;20048;-75
2023/03/27 09:42:09;;;;;;;1.92;0.82;;;;;;;;;;5038969;28;20639;-75
2023/03/27 09:44:41;;;;;;;5.45;1.10;;;;;;;;;;5046076;28;20063;-75
2023/03/27 09:47:21;;;;;;;3.50;0.80;;;;;;;;;;5040780;28;20630;-75
2023/03/27 09:50:00;;;;;;;3.40;1.40;;;;;;;;;;5046928;28;20464;-75
2023/03/27 09:52:39;;;;;;;3.55;0.85;;;;;;;;;;5047452;28;20037;-76
2023/03/27 09:55:35;;;;;;;2.85;0.95;;;;;;;;;;5045400;28;20163;-74
2023/03/27 09:58:14;;;;;;;3.72;1.00;;;;;;;;;;5039610;28;20039;-75
2023/03/27 10:00:40;;;;;;;4.13;1.38;;;;;;;;;;5046050;28;20083;-74
2023/03/27 10:03:17;;;;;;;5.25;1.30;;;;;;;;;;5052652;28;20029;-75
2023/03/27 10:05:45;;;;;;;3.70;0.80;;;;;;;;;;5042122;28;20058;-76
2023/03/27 10:08:23;;;;;;;3.90;1.15;;;;;;;;;;5044516;28;20024;-76
2023/03/27 10:10:56;;;;;;;4.88;1.20;;;;;;;;;;5043456;28;20066;-75
2023/03/27 10:13:25;;;;;;;3.53;1.00;;;;;;;;;;5040868;28;20128;-77
2023/03/27 10:15:57;;;;;;;7.57;1.20;;;;;;;;;;5043361;28;20029;-76
2023/03/27 10:18:28;;;;;;;3.92;1.00;;;;;;;;;;5047874;28;20696;-75
2023/03/27 10:20:57;;;;;;;3.17;1.33;;;;;;;;;;5041555;28;20021;-77
2023/03/27 10:23:43;;;;;;;5.60;1.48;;;;;;;;;;5044472;28;20254;-77
2023/03/27 10:26:12;;;;;;;2.90;1.02;;;;;;;;;;5042585;28;20025;-75
2023/03/27 10:28:39;;;;;;;3.85;1.05;;;;;;;;;;5047023;28;20021;-76
2023/03/27 10:31:12;;;;;;;2.97;1.05;;;;;;;;;;5047350;28;20060;-77
2023/03/27 10:33:40;;;;;;;9.43;1.30;;;;;;;;;;5038257;28;20108;-75
2023/03/27 10:36:07;;;;;;;3.28;0.77;;;;;;;;;;5047117;28;20025;-75
2023/03/27 10:38:35;;;;;;;2.75;1.20;;;;;;;;;;5042906;28;20033;-75
2023/03/27 10:41:03;;;;;;;5.82;1.42;;;;;;;;;;5049481;28;20017;-75
2023/03/27 10:43:42;;;;;;;3.97;1.08;;;;;;;;;;5039566;28;20123;-75
2023/03/27 10:46:20;;;;;;;5.15;1.00;;;;;;;;;;5046552;28;20873;-75
2023/03/27 10:48:52;;;;;;;6.85;1.38;;;;;;;;;;5045195;28;20869;-76
2023/03/27 10:51:34;;;;;;;9.90;1.52;;;;;;;;;;5048442;28;20042;-76
2023/03/27 10:54:02;;;;;;;5.70;1.20;;;;;;;;;;5044569;28;20017;-76
2023/03/27 10:56:41;;;;;;;5.30;1.98;;;;;;;;;;5045071;28;20025;-76
2023/03/27 10:59:29;;;;;;;6.43;1.73;;;;;;;;;;5039193;28;20021;-76
2023/03/27 11:01:58;;;;;;;7.65;1.75;;;;;;;;;;5047210;28;20033;-75
2023/03/27 11:04:50;;;;;;;7.35;1.42;;;;;;;;;;5039262;28;20021;-76
2023/03/27 11:07:24;;;;;;;5.95;1.20;;;;;;;;;;5008954;28;20389;-76
2023/03/27 11:09:56;;;;;;;11.27;1.70;;;;;;;;;;5043423;28;20021;-76
2023/03/27 11:12:23;;;;;;;23.98;2.60;;;;;;;;;;5038997;28;20048;-75
2023/03/27 11:15:00;;;;;;;5.75;1.27;;;;;;;;;;5040799;28;20757;-75
2023/03/27 11:17:34;;;;;;;4.95;1.30;;;;;;;;;;5036664;28;20044;-76
2023/03/27 11:20:06;;;;;;;2.70;1.00;;;;;;;;;;5043996;28;20025;-75
2023/03/27 11:22:39;;;;;;;8.63;1.63;;;;;;;;;;5040833;28;20025;-75
2023/03/27 11:25:12;;;;;;;3.90;1.13;;;;;;;;;;5043825;28;20086;-76
2023/03/27 11:27:57;;;;;;;8.38;1.40;;;;;;;;;;5036846;28;20037;-75
2023/03/27 11:30:24;;;;;;;6.28;1.70;;;;;;;;;;5044866;28;20016;-76
2023/03/27 11:32:59;;;;;;;9.65;1.60;;;;;;;;;;5044568;28;20089;-75
2023/03/27 11:35:26;;;;;;;7.90;1.58;;;;;;;;;;5040770;28;20088;-75
2023/03/27 11:37:58;;;;;;;9.68;1.42;;;;;;;;;;5035917;28;20473;-75
2023/03/27 11:40:25;;;;;;;;;;;;;;;;;;5039625;28;20025;-75
2023/03/27 11:42:52;;;;;;;8.30;1.30;;;;;;;;;;5041732;28;19991;-75
2023/03/27 11:45:22;;;;;;;5.82;1.27;;;;;;;;;;5041783;28;20096;-75
2023/03/27 11:48:13;;;;;;;3.47;1.30;;;;;;;;;;5045561;28;20021;-75
2023/03/27 11:50:58;;;;;;;5.47;1.13;;;;;;;;;;5044473;28;20030;-75
2023/03/27 11:53:24;;;;;;;6.65;0.90;;;;;;;;;;5038242;28;20025;-75
2023/03/27 11:55:56;;;;;;;9.05;1.30;;;;;;;;;;5042242;28;20036;-75
2023/03/27 11:58:25;;;;;;;;;;;;;;;;;;5047015;28;20025;-74
2023/03/27 12:00:54;;;;;;;3.88;1.45;;;;;;;;;;5044273;28;19912;-75
2023/03/27 12:03:27;;;;;;;2.80;1.10;;;;;;;;;;5040754;28;20161;-75
2023/03/27 12:05:54;;;;;;;4.32;1.10;;;;;;;;;;5039996;28;20021;-75
2023/03/27 12:08:40;;;;;;;3.75;1.00;;;;;;;;;;5043472;28;20029;-75
2023/03/27 12:11:07;;;;;;;3.85;0.98;;;;;;;;;;5039872;28;20852;-75
2023/03/27 12:13:39;;;;;;;10.18;1.63;;;;;;;;;;5036912;28;20036;-75
2023/03/27 12:16:09;;;;;;;4.88;1.30;;;;;;;;;;5039959;28;20401;-75
2023/03/27 12:18:58;;;;;;;6.38;1.98;;;;;;;;;;5040721;28;20706;-75
2023/03/27 12:21:45;;;;;;;8.73;1.60;;;;;;;;;;5033165;28;20033;-76
2023/03/27 12:24:17;;;;;;;10.13;1.95;;;;;;;;;;5042511;28;20104;-75
2023/03/27 12:26:49;;;;;;;6.65;1.65;;;;;;;;;;5035132;28;20694;-75
2023/03/27 12:29:22;;;;;;;13.50;2.08;;;;;;;;;;5041853;28;20593;-75
2023/03/27 12:31:54;;;;;;;9.52;1.83;;;;;;;;;;5040682;28;20078;-75
2023/03/27 12:34:30;;;;;;;4.53;1.58;;;;;;;;;;5035036;28;20540;-75
2023/03/27 12:36:58;;;;;;;6.82;1.88;;;;;;;;;;5033109;28;20385;-75
2023/03/27 12:39:25;;;;;;;12.77;2.55;;;;;;;;;;5041661;28;20040;-74
2023/03/27 12:41:52;;;;;;;8.48;1.70;;;;;;;;;;5031584;28;20049;-75
2023/03/27 12:44:20;;;;;;;12.23;2.50;;;;;;;;;;5039131;28;20108;-75
2023/03/27 12:47:05;;;;;;;13.43;2.13;;;;;;;;;;5049714;28;20048;-75
2023/03/27 12:49:45;;;;;;;14.13;2.17;;;;;;;;;;5040020;28;20053;-75
2023/03/27 12:52:11;;;;;;;14.23;2.42;;;;;;;;;;5044913;28;20059;-75
2023/03/27 12:54:38;;;;;;;8.70;1.92;;;;;;;;;;5039297;28;20017;-75
2023/03/27 12:57:14;;;;;;;9.73;1.95;;;;;;;;;;5041974;28;20104;-75
2023/03/27 12:59:57;;;;;;;11.02;2.05;;;;;;;;;;5034454;28;20096;-75
2023/03/27 13:02:50;;;;;;;8.00;2.20;;;;;;;;;;5036479;28;20440;-75
2023/03/27 13:05:18;;;;;;;10.30;2.08;;;;;;;;;;5041444;28;20017;-75
2023/03/27 13:07:49;;;;;;;9.68;2.10;;;;;;;;;;5044411;28;20535;-75
2023/03/27 13:10:40;;;;;;;8.10;1.77;;;;;;;;;;5046266;28;20025;-75
2023/03/27 13:13:20;;;;;;;10.38;2.17;;;;;;;;;;5039837;28;20033;-75
2023/03/27 13:15:46;;;;;;;9.75;2.00;;;;;;;;;;5044571;28;20041;-75
2023/03/27 13:18:22;;;;;;;14.82;3.08;;;;;;;;;;5040855;28;20083;-75
2023/03/27 13:21:07;;;;;;;15.30;2.47;;;;;;;;;;5042692;28;20148;-75
2023/03/27 13:23:33;;;;;;;11.88;2.22;;;;;;;;;;5042780;28;20028;-76
2023/03/27 13:25:59;;;;;;;14.95;3.05;;;;;;;;;;5040463;28;20108;-75
2023/03/27 13:28:39;;;;;;;17.38;2.75;;;;;;;;;;5043436;28;20041;-75
2023/03/27 13:31:13;;;;;;;12.65;2.60;;;;;;;;;;5044922;28;20086;-75
2023/03/27 13:33:44;;;;;;;11.45;2.63;;;;;;;;;;5039882;28;20043;-75
2023/03/27 13:36:10;;;;;;;12.80;2.53;;;;;;;;;;5042799;28;20112;-75
2023/03/27 13:38:52;;;;;;;20.88;4.07;;;;;;;;;;5042342;28;20045;-75
2023/03/27 13:41:37;;;;;;;12.63;2.43;;;;;;;;;;5042223;28;20052;-75
2023/03/27 13:44:05;;;;;;;17.02;2.85;;;;;;;;;;5048901;28;20349;-75
2023/03/27 13:46:33;;;;;;;16.88;2.38;;;;;;;;;;5044926;28;20125;-75
2023/03/27 13:49:06;;;;;;;13.93;2.47;;;;;;;;;;5038657;28;20124;-75
2023/03/27 13:51:32;;;;;;;16.00;3.60;;;;;;;;;;5047882;28;20032;-75
2023/03/27 13:54:14;;;;;;;27.70;3.17;;;;;;;;;;5039640;28;20034;-75
2023/03/27 13:56:50;;;;;;;20.10;3.47;;;;;;;;;;5043746;28;20025;-76
2023/03/27 13:59:29;;;;;;;14.93;2.92;;;;;;;;;;5042445;28;20103;-73
2023/03/27 14:02:03;;;;;;;11.68;3.55;;;;;;;;;;5041374;28;20025;-77
2023/03/27 14:04:48;;;;;;;18.13;3.22;;;;;;;;;;5043216;28;20027;-76
2023/03/27 14:07:33;;;;;;;13.00;2.80;;;;;;;;;;5043785;28;20099;-75
2023/03/27 14:09:59;;;;;;;14.38;3.25;;;;;;;;;;5039644;28;20057;-75
2023/03/27 14:12:39;;;;;;;15.00;3.10;;;;;;;;;;5043754;28;20033;-75
2023/03/27 14:15:37;;;;;;;14.93;3.25;;;;;;;;;;5042355;28;20532;-76
2023/03/27 14:18:09;;;;;;;16.40;2.78;;;;;;;;;;5035175;28;20139;-74
2023/03/27 14:20:47;;;;;;;13.55;2.33;;;;;;;;;;5038721;28;20103;-75
2023/03/27 14:23:20;;;;;;;13.82;2.92;;;;;;;;;;5040579;28;20032;-75
2023/03/27 14:26:18;;;;;;;17.20;2.83;;;;;;;;;;5042593;28;20024;-75
2023/03/27 14:28:56;;;;;;;15.35;2.83;;;;;;;;;;5043682;28;20655;-76
2023/03/27 14:31:25;;;;;;;14.07;3.40;;;;;;;;;;5042350;28;20028;-76
2023/03/27 14:34:02;;;;;;;15.68;3.22;;;;;;;;;;5039733;28;20473;-75
2023/03/27 14:36:32;;;;;;;22.13;3.67;;;;;;;;;;5044709;28;20017;-75
2023/03/27 14:39:02;;;;;;;13.68;2.53;;;;;;;;;;5041791;28;20492;-75
2023/03/27 14:41:28;;;;;;;23.05;3.45;;;;;;;;;;5047714;28;20064;-75
2023/03/27 14:44:02;;;;;;;17.65;2.90;;;;;;;;;;5042285;28;20556;-75
2023/03/27 14:46:29;;;;;;;18.92;3.28;;;;;;;;;;5051564;28;20075;-75
2023/03/27 14:48:56;;;;;;;12.90;2.70;;;;;;;;;;5043711;28;20015;-75
2023/03/27 14:51:24;;;;;;;11.40;3.65;;;;;;;;;;5046666;28;20070;-76
2023/03/27 14:53:51;;;;;;;24.60;4.32;;;;;;;;;;5045564;28;20037;-75
2023/03/27 14:56:21;;;;;;;17.05;2.75;;;;;;;;;;5042329;28;20095;-75
2023/03/27 14:58:50;;;;;;;16.48;3.75;;;;;;;;;;5047463;28;20107;-75
2023/03/27 15:01:17;;;;;;;16.90;3.13;;;;;;;;;;5050874;28;20025;-78